sensor_id;sensor_type;location;lat;lon;timestamp;temperature;humidity
4390;DHT22;2209;48.982;8.406;2023-04-01T00:00:19;11.60;99.90
4390;DHT22;2209;48.982;8.406;2023-04-01T00:02:42;11.60;99.90
4390;DHT22;2209;48.982;8.406;2023-04-01T00:05:06;11.70;99.90
4390;DHT22;2209;48.982;8.406;2023-04-01T00:07:28;11.60;99.90
4390;DHT22;2209;48.982;8.406;2023-04-01T00:09:50;11.70;99.90
4390;DHT22;2209;48.982;8.406;2023-04-01T00:12:12;11.60;99.90
4390;DHT22;2209;48.982;8.406;2023-04-01T00:14:35;11.70;99.90
4390;DHT22;2209;48.982;8.406;2023-04-01T00:16:57;11.60;99.90
4390;DHT22;2209;48.982;8.406;2023-04-01T00:19:21;11.60;99.90
4390;DHT22;2209;48.982;8.406;2023-04-01T00:21:43;11.60;99.90
4390;DHT22;2209;48.982;8.406;2023-04-01T00:24:05;11.60;99.90
4390;DHT22;2209;48.982;8.406;2023-04-01T00:26:27;11.60;99.90
4390;DHT22;2209;48.982;8.406;2023-04-01T00:28:49;11.60;99.90
4390;DHT22;2209;48.982;8.406;2023-04-01T00:31:13;11.60;99.90
4390;DHT22;2209;48.982;8.406;2023-04-01T00:33:35;11.60;99.90
4390;DHT22;2209;48.982;8.406;2023-04-01T00:36:07;11.60;99.90
4390;DHT22;2209;48.982;8.406;2023-04-01T00:38:29;11.60;99.90
4390;DHT22;2209;48.982;8.406;2023-04-01T00:40:57;11.60;99.90
4390;DHT22;2209;48.982;8.406;2023-04-01T00:43:20;11.60;99.90
4390;DHT22;2209;48.982;8.406;2023-04-01T00:45:44;11.60;99.90
4390;DHT22;2209;48.982;8.406;2023-04-01T00:48:10;11.60;99.90
4390;DHT22;2209;48.982;8.406;2023-04-01T00:50:33;11.60;99.90
4390;DHT22;2209;48.982;8.406;2023-04-01T00:52:57;11.50;99.90
4390;DHT22;2209;48.982;8.406;2023-04-01T00:55:21;11.50;99.90
4390;DHT22;2209;48.982;8.406;2023-04-01T00:57:45;11.50;99.90
4390;DHT22;2209;48.982;8.406;2023-04-01T01:00:10;11.50;99.90
4390;DHT22;2209;48.982;8.406;2023-04-01T01:02:34;11.50;99.90
4390;DHT22;2209;48.982;8.406;2023-04-01T01:04:57;11.50;99.90
4390;DHT22;2209;48.982;8.406;2023-04-01T01:07:26;11.50;99.90
4390;DHT22;2209;48.982;8.406;2023-04-01T01:10:00;11.50;99.90
4390;DHT22;2209;48.982;8.406;2023-04-01T01:12:27;11.50;99.90
4390;DHT22;2209;48.982;8.406;2023-04-01T01:14:56;11.50;99.90
4390;DHT22;2209;48.982;8.406;2023-04-01T01:17:26;11.50;99.90
4390;DHT22;2209;48.982;8.406;2023-04-01T01:20:29;11.50;99.90
4390;DHT22;2209;48.982;8.406;2023-04-01T01:25:59;11.50;99.90
4390;DHT22;2209;48.982;8.406;2023-04-01T01:28:36;11.50;99.90
4390;DHT22;2209;48.982;8.406;2023-04-01T01:31:12;11.50;99.90
4390;DHT22;2209;48.982;8.406;2023-04-01T01:33:52;11.40;99.90
4390;DHT22;2209;48.982;8.406;2023-04-01T01:36:19;11.40;99.90
4390;DHT22;2209;48.982;8.406;2023-04-01T01:38:43;11.40;99.90
4390;DHT22;2209;48.982;8.406;2023-04-01T01:41:07;11.40;99.90
4390;DHT22;2209;48.982;8.406;2023-04-01T01:43:33;11.30;99.90
4390;DHT22;2209;48.982;8.406;2023-04-01T01:45:58;11.30;99.90
4390;DHT22;2209;48.982;8.406;2023-04-01T01:48:22;11.30;99.90
4390;DHT22;2209;48.982;8.406;2023-04-01T01:50:45;11.20;99.90
4390;DHT22;2209;48.982;8.406;2023-04-01T01:53:10;11.20;99.90
4390;DHT22;2209;48.982;8.406;2023-04-01T01:55:34;11.20;99.90
4390;DHT22;2209;48.982;8.406;2023-04-01T01:58:00;11.20;99.90
4390;DHT22;2209;48.982;8.406;2023-04-01T02:00:23;11.10;99.90
4390;DHT22;2209;48.982;8.406;2023-04-01T02:02:47;11.10;99.90
4390;DHT22;2209;48.982;8.406;2023-04-01T02:05:11;11.10;99.90
4390;DHT22;2209;48.982;8.406;2023-04-01T02:07:37;11.00;99.90
4390;DHT22;2209;48.982;8.406;2023-04-01T02:10:03;11.00;99.90
4390;DHT22;2209;48.982;8.406;2023-04-01T02:12:25;11.00;99.90
4390;DHT22;2209;48.982;8.406;2023-04-01T02:14:52;11.00;99.90
4390;DHT22;2209;48.982;8.406;2023-04-01T02:17:17;11.00;99.90
4390;DHT22;2209;48.982;8.406;2023-04-01T02:19:44;11.00;99.90
4390;DHT22;2209;48.982;8.406;2023-04-01T02:22:10;11.00;99.90
4390;DHT22;2209;48.982;8.406;2023-04-01T02:24:35;11.00;99.90
4390;DHT22;2209;48.982;8.406;2023-04-01T02:27:00;11.00;99.90
4390;DHT22;2209;48.982;8.406;2023-04-01T02:29:24;11.00;99.90
4390;DHT22;2209;48.982;8.406;2023-04-01T02:31:47;11.00;99.90
4390;DHT22;2209;48.982;8.406;2023-04-01T02:34:09;11.00;99.90
4390;DHT22;2209;48.982;8.406;2023-04-01T02:36:32;11.00;99.90
4390;DHT22;2209;48.982;8.406;2023-04-01T02:38:55;11.00;99.90
4390;DHT22;2209;48.982;8.406;2023-04-01T02:41:21;11.00;99.90
4390;DHT22;2209;48.982;8.406;2023-04-01T02:43:45;11.00;99.90
4390;DHT22;2209;48.982;8.406;2023-04-01T02:46:07;11.10;99.90
4390;DHT22;2209;48.982;8.406;2023-04-01T02:48:29;11.10;99.90
4390;DHT22;2209;48.982;8.406;2023-04-01T02:50:51;11.00;99.90
4390;DHT22;2209;48.982;8.406;2023-04-01T02:53:13;11.00;99.90
4390;DHT22;2209;48.982;8.406;2023-04-01T02:55:36;11.00;99.90
4390;DHT22;2209;48.982;8.406;2023-04-01T02:57:58;10.90;99.90
4390;DHT22;2209;48.982;8.406;2023-04-01T03:00:22;10.90;99.90
4390;DHT22;2209;48.982;8.406;2023-04-01T03:02:44;10.90;99.90
4390;DHT22;2209;48.982;8.406;2023-04-01T03:05:07;10.90;99.90
4390;DHT22;2209;48.982;8.406;2023-04-01T03:07:29;10.90;99.90
4390;DHT22;2209;48.982;8.406;2023-04-01T03:09:51;10.90;99.90
4390;DHT22;2209;48.982;8.406;2023-04-01T03:12:13;10.80;99.90
4390;DHT22;2209;48.982;8.406;2023-04-01T03:14:35;10.80;99.90
4390;DHT22;2209;48.982;8.406;2023-04-01T03:16:58;10.80;99.90
4390;DHT22;2209;48.982;8.406;2023-04-01T03:19:21;10.80;99.90
4390;DHT22;2209;48.982;8.406;2023-04-01T03:21:43;10.80;99.90
4390;DHT22;2209;48.982;8.406;2023-04-01T03:24:05;10.80;99.90
4390;DHT22;2209;48.982;8.406;2023-04-01T03:26:28;10.90;99.90
4390;DHT22;2209;48.982;8.406;2023-04-01T03:28:50;10.90;99.90
4390;DHT22;2209;48.982;8.406;2023-04-01T03:31:12;10.90;99.90
4390;DHT22;2209;48.982;8.406;2023-04-01T03:33:38;10.90;99.90
4390;DHT22;2209;48.982;8.406;2023-04-01T03:36:00;10.90;99.90
4390;DHT22;2209;48.982;8.406;2023-04-01T03:38:22;11.00;99.90
4390;DHT22;2209;48.982;8.406;2023-04-01T03:40:44;11.00;99.90
4390;DHT22;2209;48.982;8.406;2023-04-01T03:43:06;11.00;99.90
4390;DHT22;2209;48.982;8.406;2023-04-01T03:45:30;11.00;99.90
4390;DHT22;2209;48.982;8.406;2023-04-01T03:47:52;11.00;99.90
4390;DHT22;2209;48.982;8.406;2023-04-01T03:50:15;11.00;99.90
4390;DHT22;2209;48.982;8.406;2023-04-01T03:52:38;11.00;99.90
4390;DHT22;2209;48.982;8.406;2023-04-01T03:55:01;10.90;99.90
4390;DHT22;2209;48.982;8.406;2023-04-01T03:57:24;10.90;99.90
4390;DHT22;2209;48.982;8.406;2023-04-01T03:59:47;10.90;99.90
4390;DHT22;2209;48.982;8.406;2023-04-01T04:02:09;10.90;99.90
4390;DHT22;2209;48.982;8.406;2023-04-01T04:04:31;10.90;99.90
4390;DHT22;2209;48.982;8.406;2023-04-01T04:06:55;10.90;99.90
4390;DHT22;2209;48.982;8.406;2023-04-01T04:09:17;10.90;99.90
4390;DHT22;2209;48.982;8.406;2023-04-01T04:11:39;10.90;99.90
4390;DHT22;2209;48.982;8.406;2023-04-01T04:14:01;11.00;99.90
4390;DHT22;2209;48.982;8.406;2023-04-01T04:16:23;10.90;99.90
4390;DHT22;2209;48.982;8.406;2023-04-01T04:18:45;10.90;99.90
4390;DHT22;2209;48.982;8.406;2023-04-01T04:21:11;10.90;99.90
4390;DHT22;2209;48.982;8.406;2023-04-01T04:23:35;11.00;99.90
4390;DHT22;2209;48.982;8.406;2023-04-01T04:25:59;11.00;99.90
4390;DHT22;2209;48.982;8.406;2023-04-01T04:28:21;11.00;99.90
4390;DHT22;2209;48.982;8.406;2023-04-01T04:30:43;11.00;99.90
4390;DHT22;2209;48.982;8.406;2023-04-01T04:33:05;11.00;99.90
4390;DHT22;2209;48.982;8.406;2023-04-01T04:35:27;11.00;99.90
4390;DHT22;2209;48.982;8.406;2023-04-01T04:37:49;11.00;99.90
4390;DHT22;2209;48.982;8.406;2023-04-01T04:40:13;11.00;99.90
4390;DHT22;2209;48.982;8.406;2023-04-01T04:42:35;11.10;99.90
4390;DHT22;2209;48.982;8.406;2023-04-01T04:44:57;11.10;99.90
4390;DHT22;2209;48.982;8.406;2023-04-01T04:47:19;11.00;99.90
4390;DHT22;2209;48.982;8.406;2023-04-01T04:49:41;11.10;99.90
4390;DHT22;2209;48.982;8.406;2023-04-01T04:52:03;11.10;99.90
4390;DHT22;2209;48.982;8.406;2023-04-01T04:54:25;11.10;99.90
4390;DHT22;2209;48.982;8.406;2023-04-01T04:56:51;11.10;99.90
4390;DHT22;2209;48.982;8.406;2023-04-01T04:59:13;11.00;99.90
4390;DHT22;2209;48.982;8.406;2023-04-01T05:01:35;11.00;99.90
4390;DHT22;2209;48.982;8.406;2023-04-01T05:03:57;11.00;99.90
4390;DHT22;2209;48.982;8.406;2023-04-01T05:06:19;11.00;99.90
4390;DHT22;2209;48.982;8.406;2023-04-01T05:08:42;10.90;99.90
4390;DHT22;2209;48.982;8.406;2023-04-01T05:11:07;10.90;99.90
4390;DHT22;2209;48.982;8.406;2023-04-01T05:13:32;10.90;99.90
4390;DHT22;2209;48.982;8.406;2023-04-01T05:15:54;10.90;99.90
4390;DHT22;2209;48.982;8.406;2023-04-01T05:18:17;10.90;99.90
4390;DHT22;2209;48.982;8.406;2023-04-01T05:20:39;10.90;99.90
4390;DHT22;2209;48.982;8.406;2023-04-01T05:23:01;10.90;99.90
4390;DHT22;2209;48.982;8.406;2023-04-01T05:25:23;10.90;99.90
4390;DHT22;2209;48.982;8.406;2023-04-01T05:27:45;10.90;99.90
4390;DHT22;2209;48.982;8.406;2023-04-01T05:30:10;10.90;99.90
4390;DHT22;2209;48.982;8.406;2023-04-01T05:32:32;10.90;99.90
4390;DHT22;2209;48.982;8.406;2023-04-01T05:34:54;10.90;99.90
4390;DHT22;2209;48.982;8.406;2023-04-01T05:37:16;10.90;99.90
4390;DHT22;2209;48.982;8.406;2023-04-01T05:39:38;10.90;99.90
4390;DHT22;2209;48.982;8.406;2023-04-01T05:42:00;10.90;99.90
4390;DHT22;2209;48.982;8.406;2023-04-01T05:44:22;10.90;99.90
4390;DHT22;2209;48.982;8.406;2023-04-01T05:46:46;10.90;99.90
4390;DHT22;2209;48.982;8.406;2023-04-01T05:49:08;10.90;99.90
4390;DHT22;2209;48.982;8.406;2023-04-01T05:51:30;10.90;99.90
4390;DHT22;2209;48.982;8.406;2023-04-01T05:53:52;10.90;99.90
4390;DHT22;2209;48.982;8.406;2023-04-01T05:56:14;10.90;99.90
4390;DHT22;2209;48.982;8.406;2023-04-01T05:58:37;10.80;99.90
4390;DHT22;2209;48.982;8.406;2023-04-01T06:01:02;10.80;99.90
4390;DHT22;2209;48.982;8.406;2023-04-01T06:03:26;10.80;99.90
4390;DHT22;2209;48.982;8.406;2023-04-01T06:05:48;10.80;99.90
4390;DHT22;2209;48.982;8.406;2023-04-01T06:08:12;10.70;99.90
4390;DHT22;2209;48.982;8.406;2023-04-01T06:10:44;10.70;99.90
4390;DHT22;2209;48.982;8.406;2023-04-01T06:13:18;10.70;99.90
4390;DHT22;2209;48.982;8.406;2023-04-01T06:15:44;10.60;99.90
4390;DHT22;2209;48.982;8.406;2023-04-01T06:18:47;10.60;99.90
4390;DHT22;2209;48.982;8.406;2023-04-01T06:21:32;10.60;99.90
4390;DHT22;2209;48.982;8.406;2023-04-01T06:24:00;10.60;99.90
4390;DHT22;2209;48.982;8.406;2023-04-01T06:26:31;10.60;99.90
4390;DHT22;2209;48.982;8.406;2023-04-01T06:38:17;10.60;99.90
4390;DHT22;2209;48.982;8.406;2023-04-01T06:41:08;10.60;99.90
4390;DHT22;2209;48.982;8.406;2023-04-01T06:43:42;10.60;99.90
4390;DHT22;2209;48.982;8.406;2023-04-01T06:46:11;10.50;99.90
4390;DHT22;2209;48.982;8.406;2023-04-01T06:48:47;10.50;99.90
4390;DHT22;2209;48.982;8.406;2023-04-01T06:51:23;10.50;99.90
4390;DHT22;2209;48.982;8.406;2023-04-01T06:53:54;10.50;99.90
4390;DHT22;2209;48.982;8.406;2023-04-01T06:56:20;10.50;99.90
4390;DHT22;2209;48.982;8.406;2023-04-01T06:58:46;10.50;99.90
4390;DHT22;2209;48.982;8.406;2023-04-01T07:01:14;10.50;99.90
4390;DHT22;2209;48.982;8.406;2023-04-01T07:03:40;10.50;99.90
4390;DHT22;2209;48.982;8.406;2023-04-01T07:06:16;10.50;99.90
4390;DHT22;2209;48.982;8.406;2023-04-01T07:08:49;10.50;99.90
4390;DHT22;2209;48.982;8.406;2023-04-01T07:11:16;10.50;99.90
4390;DHT22;2209;48.982;8.406;2023-04-01T07:13:44;10.50;99.90
4390;DHT22;2209;48.982;8.406;2023-04-01T07:16:13;10.50;99.90
4390;DHT22;2209;48.982;8.406;2023-04-01T07:18:41;10.60;99.90
4390;DHT22;2209;48.982;8.406;2023-04-01T07:21:04;10.60;99.90
4390;DHT22;2209;48.982;8.406;2023-04-01T07:23:39;10.50;99.90
4390;DHT22;2209;48.982;8.406;2023-04-01T07:26:14;10.60;99.90
4390;DHT22;2209;48.982;8.406;2023-04-01T07:28:36;10.50;99.90
4390;DHT22;2209;48.982;8.406;2023-04-01T07:31:07;10.50;99.90
4390;DHT22;2209;48.982;8.406;2023-04-01T07:33:38;10.50;99.90
4390;DHT22;2209;48.982;8.406;2023-04-01T07:36:05;10.50;99.90
4390;DHT22;2209;48.982;8.406;2023-04-01T07:38:37;10.60;99.90
4390;DHT22;2209;48.982;8.406;2023-04-01T07:41:12;10.50;99.90
4390;DHT22;2209;48.982;8.406;2023-04-01T07:43:48;10.50;99.90
4390;DHT22;2209;48.982;8.406;2023-04-01T07:46:23;10.50;99.90
4390;DHT22;2209;48.982;8.406;2023-04-01T07:48:55;10.50;99.90
4390;DHT22;2209;48.982;8.406;2023-04-01T07:51:22;10.40;99.90
4390;DHT22;2209;48.982;8.406;2023-04-01T07:53:50;10.30;99.90
4390;DHT22;2209;48.982;8.406;2023-04-01T07:56:20;10.30;99.90
4390;DHT22;2209;48.982;8.406;2023-04-01T07:58:53;10.30;99.90
4390;DHT22;2209;48.982;8.406;2023-04-01T08:01:25;10.30;99.90
4390;DHT22;2209;48.982;8.406;2023-04-01T08:04:20;10.30;99.90
4390;DHT22;2209;48.982;8.406;2023-04-01T08:06:49;10.30;99.90
4390;DHT22;2209;48.982;8.406;2023-04-01T08:09:22;10.30;99.90
4390;DHT22;2209;48.982;8.406;2023-04-01T08:11:56;10.30;99.90
4390;DHT22;2209;48.982;8.406;2023-04-01T08:14:31;10.30;99.90
4390;DHT22;2209;48.982;8.406;2023-04-01T08:17:02;10.30;99.90
4390;DHT22;2209;48.982;8.406;2023-04-01T08:19:34;10.30;99.90
4390;DHT22;2209;48.982;8.406;2023-04-01T08:22:03;10.40;99.90
4390;DHT22;2209;48.982;8.406;2023-04-01T08:24:32;10.40;99.90
4390;DHT22;2209;48.982;8.406;2023-04-01T08:26:58;10.40;99.90
4390;DHT22;2209;48.982;8.406;2023-04-01T08:29:25;10.40;99.90
4390;DHT22;2209;48.982;8.406;2023-04-01T08:31:51;10.40;99.90
4390;DHT22;2209;48.982;8.406;2023-04-01T08:34:19;10.50;99.90
4390;DHT22;2209;48.982;8.406;2023-04-01T08:36:45;10.50;99.90
4390;DHT22;2209;48.982;8.406;2023-04-01T08:39:12;10.50;99.90
4390;DHT22;2209;48.982;8.406;2023-04-01T08:44:50;10.60;99.90
4390;DHT22;2209;48.982;8.406;2023-04-01T08:47:36;10.60;99.90
4390;DHT22;2209;48.982;8.406;2023-04-01T08:50:28;10.60;99.90
4390;DHT22;2209;48.982;8.406;2023-04-01T08:53:00;10.80;99.90
4390;DHT22;2209;48.982;8.406;2023-04-01T08:55:31;11.00;99.90
4390;DHT22;2209;48.982;8.406;2023-04-01T08:58:15;11.10;99.90
4390;DHT22;2209;48.982;8.406;2023-04-01T09:00:45;11.10;99.90
4390;DHT22;2209;48.982;8.406;2023-04-01T09:03:22;11.10;99.90
4390;DHT22;2209;48.982;8.406;2023-04-01T09:09:14;10.90;99.90
4390;DHT22;2209;48.982;8.406;2023-04-01T09:11:50;10.80;99.90
4390;DHT22;2209;48.982;8.406;2023-04-01T09:14:34;10.70;99.90
4390;DHT22;2209;48.982;8.406;2023-04-01T09:17:39;10.60;99.90
4390;DHT22;2209;48.982;8.406;2023-04-01T09:20:19;10.60;99.90
4390;DHT22;2209;48.982;8.406;2023-04-01T09:22:53;10.50;99.90
4390;DHT22;2209;48.982;8.406;2023-04-01T09:25:33;10.50;99.90
4390;DHT22;2209;48.982;8.406;2023-04-01T09:28:07;10.70;99.90
4390;DHT22;2209;48.982;8.406;2023-04-01T09:30:48;10.80;99.90
4390;DHT22;2209;48.982;8.406;2023-04-01T09:33:42;10.80;99.90
4390;DHT22;2209;48.982;8.406;2023-04-01T09:36:17;10.70;99.90
4390;DHT22;2209;48.982;8.406;2023-04-01T09:38:52;10.60;99.90
4390;DHT22;2209;48.982;8.406;2023-04-01T09:41:23;10.60;99.90
4390;DHT22;2209;48.982;8.406;2023-04-01T09:44:00;10.60;99.90
4390;DHT22;2209;48.982;8.406;2023-04-01T09:46:26;10.60;99.90
4390;DHT22;2209;48.982;8.406;2023-04-01T09:49:22;10.60;99.90
4390;DHT22;2209;48.982;8.406;2023-04-01T09:51:56;10.50;99.90
4390;DHT22;2209;48.982;8.406;2023-04-01T09:54:35;10.50;99.90
4390;DHT22;2209;48.982;8.406;2023-04-01T09:57:31;10.50;99.90
4390;DHT22;2209;48.982;8.406;2023-04-01T10:00:15;10.50;99.90
4390;DHT22;2209;48.982;8.406;2023-04-01T10:03:27;10.50;99.90
4390;DHT22;2209;48.982;8.406;2023-04-01T10:06:12;10.50;99.90
4390;DHT22;2209;48.982;8.406;2023-04-01T10:12:14;10.50;99.90
4390;DHT22;2209;48.982;8.406;2023-04-01T10:18:06;10.50;99.90
4390;DHT22;2209;48.982;8.406;2023-04-01T10:21:02;10.50;99.90
4390;DHT22;2209;48.982;8.406;2023-04-01T10:23:57;10.60;99.90
4390;DHT22;2209;48.982;8.406;2023-04-01T10:26:39;10.50;99.90
4390;DHT22;2209;48.982;8.406;2023-04-01T10:29:39;10.50;99.90
4390;DHT22;2209;48.982;8.406;2023-04-01T10:32:34;10.50;99.90
4390;DHT22;2209;48.982;8.406;2023-04-01T10:35:28;10.50;99.90
4390;DHT22;2209;48.982;8.406;2023-04-01T10:38:24;10.50;99.90
4390;DHT22;2209;48.982;8.406;2023-04-01T10:40:57;10.50;99.90
4390;DHT22;2209;48.982;8.406;2023-04-01T10:44:04;10.60;99.90
4390;DHT22;2209;48.982;8.406;2023-04-01T10:47:14;10.60;99.90
4390;DHT22;2209;48.982;8.406;2023-04-01T10:50:11;10.60;99.90
4390;DHT22;2209;48.982;8.406;2023-04-01T10:56:09;10.60;99.90
4390;DHT22;2209;48.982;8.406;2023-04-01T10:59:01;10.60;99.90
4390;DHT22;2209;48.982;8.406;2023-04-01T11:01:53;10.60;99.90
4390;DHT22;2209;48.982;8.406;2023-04-01T11:04:51;10.60;99.90
4390;DHT22;2209;48.982;8.406;2023-04-01T11:10:47;10.50;99.90
4390;DHT22;2209;48.982;8.406;2023-04-01T11:13:48;10.60;99.90
4390;DHT22;2209;48.982;8.406;2023-04-01T11:16:39;10.60;99.90
4390;DHT22;2209;48.982;8.406;2023-04-01T11:22:24;10.60;99.90
4390;DHT22;2209;48.982;8.406;2023-04-01T11:27:53;10.60;99.90
4390;DHT22;2209;48.982;8.406;2023-04-01T11:30:33;10.60;
4390;DHT22;2209;48.982;8.406;2023-04-01T11:33:04;10.60;99.90
4390;DHT22;2209;48.982;8.406;2023-04-01T11:36:06;10.60;99.90
4390;DHT22;2209;48.982;8.406;2023-04-01T11:38:43;10.60;99.90
4390;DHT22;2209;48.982;8.406;2023-04-01T11:41:22;10.60;99.90
4390;DHT22;2209;48.982;8.406;2023-04-01T11:43:57;10.50;99.90
4390;DHT22;2209;48.982;8.406;2023-04-01T11:46:33;10.50;99.90
4390;DHT22;2209;48.982;8.406;2023-04-01T11:49:06;10.50;99.90
4390;DHT22;2209;48.982;8.406;2023-04-01T11:51:51;10.60;99.90
4390;DHT22;2209;48.982;8.406;2023-04-01T11:54:36;10.60;99.90
4390;DHT22;2209;48.982;8.406;2023-04-01T11:57:13;10.60;99.90
4390;DHT22;2209;48.982;8.406;2023-04-01T12:02:51;10.70;99.90
4390;DHT22;2209;48.982;8.406;2023-04-01T12:05:33;10.60;99.90
4390;DHT22;2209;48.982;8.406;2023-04-01T12:08:07;10.70;99.90
4390;DHT22;2209;48.982;8.406;2023-04-01T12:10:39;10.70;99.90
4390;DHT22;2209;48.982;8.406;2023-04-01T12:13:06;10.60;99.90
4390;DHT22;2209;48.982;8.406;2023-04-01T12:15:41;10.60;99.90
4390;DHT22;2209;48.982;8.406;2023-04-01T12:18:14;10.70;99.90
4390;DHT22;2209;48.982;8.406;2023-04-01T12:20:45;10.70;99.90
4390;DHT22;2209;48.982;8.406;2023-04-01T12:23:20;10.70;99.90
4390;DHT22;2209;48.982;8.406;2023-04-01T12:26:03;10.70;99.90
4390;DHT22;2209;48.982;8.406;2023-04-01T12:28:41;10.60;99.90
4390;DHT22;2209;48.982;8.406;2023-04-01T12:31:18;10.60;99.90
4390;DHT22;2209;48.982;8.406;2023-04-01T12:36:45;10.60;99.90
4390;DHT22;2209;48.982;8.406;2023-04-01T12:39:33;10.60;99.90
4390;DHT22;2209;48.982;8.406;2023-04-01T12:42:02;10.60;99.90
4390;DHT22;2209;48.982;8.406;2023-04-01T12:44:37;10.60;99.90
4390;DHT22;2209;48.982;8.406;2023-04-01T12:47:26;10.60;99.90
4390;DHT22;2209;48.982;8.406;2023-04-01T12:50:16;10.60;99.90
4390;DHT22;2209;48.982;8.406;2023-04-01T12:52:54;10.60;99.90
4390;DHT22;2209;48.982;8.406;2023-04-01T12:55:40;10.60;99.90
4390;DHT22;2209;48.982;8.406;2023-04-01T13:01:19;10.60;99.90
4390;DHT22;2209;48.982;8.406;2023-04-01T13:03:58;10.60;99.90
4390;DHT22;2209;48.982;8.406;2023-04-01T13:06:42;10.60;99.90
4390;DHT22;2209;48.982;8.406;2023-04-01T13:09:14;10.60;99.90
4390;DHT22;2209;48.982;8.406;2023-04-01T13:11:48;10.60;99.90
4390;DHT22;2209;48.982;8.406;2023-04-01T13:14:28;10.60;99.90
4390;DHT22;2209;48.982;8.406;2023-04-01T13:16:58;10.60;99.90
4390;DHT22;2209;48.982;8.406;2023-04-01T13:19:27;10.60;99.90
4390;DHT22;2209;48.982;8.406;2023-04-01T13:21:56;10.60;99.90
4390;DHT22;2209;48.982;8.406;2023-04-01T13:24:31;10.60;99.90
4390;DHT22;2209;48.982;8.406;2023-04-01T13:27:01;10.60;99.90
4390;DHT22;2209;48.982;8.406;2023-04-01T13:29:31;10.60;99.90
4390;DHT22;2209;48.982;8.406;2023-04-01T13:32:13;10.60;99.90
4390;DHT22;2209;48.982;8.406;2023-04-01T13:34:47;10.60;99.90
4390;DHT22;2209;48.982;8.406;2023-04-01T13:37:27;10.60;99.90
4390;DHT22;2209;48.982;8.406;2023-04-01T13:40:02;10.60;99.90
4390;DHT22;2209;48.982;8.406;2023-04-01T13:42:29;10.60;99.90
4390;DHT22;2209;48.982;8.406;2023-04-01T13:45:00;10.60;99.90
4390;DHT22;2209;48.982;8.406;2023-04-01T13:50:49;10.50;99.90
4390;DHT22;2209;48.982;8.406;2023-04-01T13:53:32;10.50;99.90
4390;DHT22;2209;48.982;8.406;2023-04-01T13:56:07;10.50;99.90
4390;DHT22;2209;48.982;8.406;2023-04-01T13:59:02;10.50;99.90
4390;DHT22;2209;48.982;8.406;2023-04-01T14:01:32;10.60;99.90
4390;DHT22;2209;48.982;8.406;2023-04-01T14:07:15;10.70;99.90
4390;DHT22;2209;48.982;8.406;2023-04-01T14:09:57;10.80;99.90
4390;DHT22;2209;48.982;8.406;2023-04-01T14:12:29;10.80;99.90
4390;DHT22;2209;48.982;8.406;2023-04-01T14:15:05;10.80;99.90
4390;DHT22;2209;48.982;8.406;2023-04-01T14:17:43;10.70;99.90
4390;DHT22;2209;48.982;8.406;2023-04-01T14:20:22;10.70;99.90
4390;DHT22;2209;48.982;8.406;2023-04-01T14:22:59;10.60;99.90
4390;DHT22;2209;48.982;8.406;2023-04-01T14:25:41;10.60;99.90
4390;DHT22;2209;48.982;8.406;2023-04-01T14:28:16;10.60;99.90
4390;DHT22;2209;48.982;8.406;2023-04-01T14:30:55;10.60;99.90
4390;DHT22;2209;48.982;8.406;2023-04-01T14:33:28;10.60;99.90
4390;DHT22;2209;48.982;8.406;2023-04-01T14:36:04;10.60;99.90
4390;DHT22;2209;48.982;8.406;2023-04-01T14:38:42;10.60;99.90
4390;DHT22;2209;48.982;8.406;2023-04-01T14:41:18;10.70;99.90
4390;DHT22;2209;48.982;8.406;2023-04-01T14:43:49;10.70;99.90
4390;DHT22;2209;48.982;8.406;2023-04-01T14:46:41;10.70;99.90
4390;DHT22;2209;48.982;8.406;2023-04-01T14:49:15;10.60;99.90
4390;DHT22;2209;48.982;8.406;2023-04-01T14:51:41;10.60;99.90
4390;DHT22;2209;48.982;8.406;2023-04-01T14:54:07;10.60;99.90
4390;DHT22;2209;48.982;8.406;2023-04-01T14:56:38;10.60;99.90
4390;DHT22;2209;48.982;8.406;2023-04-01T14:59:09;10.60;99.90
4390;DHT22;2209;48.982;8.406;2023-04-01T15:01:36;10.70;99.90
4390;DHT22;2209;48.982;8.406;2023-04-01T15:04:15;10.70;99.90
4390;DHT22;2209;48.982;8.406;2023-04-01T15:06:50;10.70;99.90
4390;DHT22;2209;48.982;8.406;2023-04-01T15:09:24;10.70;99.90
4390;DHT22;2209;48.982;8.406;2023-04-01T15:11:57;10.70;99.90
4390;DHT22;2209;48.982;8.406;2023-04-01T15:14:31;10.70;99.90
4390;DHT22;2209;48.982;8.406;2023-04-01T15:17:05;10.70;99.90
4390;DHT22;2209;48.982;8.406;2023-04-01T15:19:44;10.70;99.90
4390;DHT22;2209;48.982;8.406;2023-04-01T15:22:32;10.80;99.90
4390;DHT22;2209;48.982;8.406;2023-04-01T15:25:19;10.80;99.90
4390;DHT22;2209;48.982;8.406;2023-04-01T15:27:48;10.80;99.90
4390;DHT22;2209;48.982;8.406;2023-04-01T15:30:29;10.80;99.90
4390;DHT22;2209;48.982;8.406;2023-04-01T15:33:13;10.80;99.90
4390;DHT22;2209;48.982;8.406;2023-04-01T15:35:44;10.90;99.90
4390;DHT22;2209;48.982;8.406;2023-04-01T15:38:14;10.80;99.90
4390;DHT22;2209;48.982;8.406;2023-04-01T15:40:43;10.90;99.90
4390;DHT22;2209;48.982;8.406;2023-04-01T15:43:18;10.80;99.90
4390;DHT22;2209;48.982;8.406;2023-04-01T15:45:51;10.80;99.90
4390;DHT22;2209;48.982;8.406;2023-04-01T15:48:28;10.80;99.90
4390;DHT22;2209;48.982;8.406;2023-04-01T15:51:09;10.80;99.90
4390;DHT22;2209;48.982;8.406;2023-04-01T15:53:51;10.80;99.90
4390;DHT22;2209;48.982;8.406;2023-04-01T15:56:26;10.80;99.90
4390;DHT22;2209;48.982;8.406;2023-04-01T15:59:00;10.80;99.90
4390;DHT22;2209;48.982;8.406;2023-04-01T16:01:35;10.80;99.90
4390;DHT22;2209;48.982;8.406;2023-04-01T16:04:13;10.80;99.90
4390;DHT22;2209;48.982;8.406;2023-04-01T16:12:17;10.80;99.90
4390;DHT22;2209;48.982;8.406;2023-04-01T16:14:48;10.80;99.90
4390;DHT22;2209;48.982;8.406;2023-04-01T16:17:39;10.80;99.90
4390;DHT22;2209;48.982;8.406;2023-04-01T16:20:17;10.90;99.90
4390;DHT22;2209;48.982;8.406;2023-04-01T16:22:45;10.90;99.90
4390;DHT22;2209;48.982;8.406;2023-04-01T16:25:19;10.90;99.90
4390;DHT22;2209;48.982;8.406;2023-04-01T16:27:46;10.90;99.90
4390;DHT22;2209;48.982;8.406;2023-04-01T16:30:26;10.80;99.90
4390;DHT22;2209;48.982;8.406;2023-04-01T16:33:01;10.80;99.90
4390;DHT22;2209;48.982;8.406;2023-04-01T16:35:40;10.80;99.90
4390;DHT22;2209;48.982;8.406;2023-04-01T16:38:08;10.90;99.90
4390;DHT22;2209;48.982;8.406;2023-04-01T16:40:42;10.90;99.90
4390;DHT22;2209;48.982;8.406;2023-04-01T16:43:13;10.90;99.90
4390;DHT22;2209;48.982;8.406;2023-04-01T16:45:41;10.90;99.90
4390;DHT22;2209;48.982;8.406;2023-04-01T16:48:12;10.90;99.90
4390;DHT22;2209;48.982;8.406;2023-04-01T16:50:44;10.90;99.90
4390;DHT22;2209;48.982;8.406;2023-04-01T16:53:17;10.90;99.90
4390;DHT22;2209;48.982;8.406;2023-04-01T16:55:48;10.90;99.90
4390;DHT22;2209;48.982;8.406;2023-04-01T16:58:20;10.90;99.90
4390;DHT22;2209;48.982;8.406;2023-04-01T17:00:48;10.90;99.90
4390;DHT22;2209;48.982;8.406;2023-04-01T17:03:15;10.90;99.90
4390;DHT22;2209;48.982;8.406;2023-04-01T17:05:52;10.80;99.90
4390;DHT22;2209;48.982;8.406;2023-04-01T17:08:26;10.80;99.90
4390;DHT22;2209;48.982;8.406;2023-04-01T17:10:53;10.80;99.90
4390;DHT22;2209;48.982;8.406;2023-04-01T17:13:29;10.80;99.90
4390;DHT22;2209;48.982;8.406;2023-04-01T17:16:01;10.80;99.90
4390;DHT22;2209;48.982;8.406;2023-04-01T17:18:36;10.80;99.90
4390;DHT22;2209;48.982;8.406;2023-04-01T17:21:06;10.80;99.90
4390;DHT22;2209;48.982;8.406;2023-04-01T17:23:33;10.80;99.90
4390;DHT22;2209;48.982;8.406;2023-04-01T17:26:06;10.80;99.90
4390;DHT22;2209;48.982;8.406;2023-04-01T17:28:38;10.80;99.90